sensor_id;sensor_type;location;lat;lon;timestamp;temperature;humidity
36442;DHT22;64346;50.820;16.274;2023-05-07T00:01:48;9.60;99.90
36442;DHT22;64346;50.820;16.274;2023-05-07T00:04:15;9.60;99.90
36442;DHT22;64346;50.820;16.274;2023-05-07T00:06:43;9.50;99.90
36442;DHT22;64346;50.820;16.274;2023-05-07T00:09:12;9.60;99.90
36442;DHT22;64346;50.820;16.274;2023-05-07T00:11:39;9.50;99.90
36442;DHT22;64346;50.820;16.274;2023-05-07T00:14:07;9.60;99.90
36442;DHT22;64346;50.820;16.274;2023-05-07T00:16:34;9.50;99.90
36442;DHT22;64346;50.820;16.274;2023-05-07T00:19:04;9.50;99.90
36442;DHT22;64346;50.820;16.274;2023-05-07T00:21:31;9.40;99.90
36442;DHT22;64346;50.820;16.274;2023-05-07T00:23:59;9.40;99.90
36442;DHT22;64346;50.820;16.274;2023-05-07T00:26:28;9.30;99.90
36442;DHT22;64346;50.820;16.274;2023-05-07T00:28:55;9.30;99.90
36442;DHT22;64346;50.820;16.274;2023-05-07T00:31:25;9.30;99.90
36442;DHT22;64346;50.820;16.274;2023-05-07T00:33:52;9.40;99.90
36442;DHT22;64346;50.820;16.274;2023-05-07T00:36:19;9.40;99.90
36442;DHT22;64346;50.820;16.274;2023-05-07T00:38:49;9.40;99.90
36442;DHT22;64346;50.820;16.274;2023-05-07T00:41:16;9.40;99.90
36442;DHT22;64346;50.820;16.274;2023-05-07T00:43:44;9.40;99.90
36442;DHT22;64346;50.820;16.274;2023-05-07T00:46:11;9.40;99.90
36442;DHT22;64346;50.820;16.274;2023-05-07T00:48:38;9.30;99.90
36442;DHT22;64346;50.820;16.274;2023-05-07T00:51:06;9.30;99.90
36442;DHT22;64346;50.820;16.274;2023-05-07T00:53:34;9.40;99.90
36442;DHT22;64346;50.820;16.274;2023-05-07T00:56:01;9.40;99.90
36442;DHT22;64346;50.820;16.274;2023-05-07T00:58:29;9.40;99.90
36442;DHT22;64346;50.820;16.274;2023-05-07T01:00:56;9.30;99.90
36442;DHT22;64346;50.820;16.274;2023-05-07T01:03:26;9.30;99.90
36442;DHT22;64346;50.820;16.274;2023-05-07T01:05:57;9.30;99.90
36442;DHT22;64346;50.820;16.274;2023-05-07T01:08:25;9.30;99.90
36442;DHT22;64346;50.820;16.274;2023-05-07T01:10:56;9.30;99.90
36442;DHT22;64346;50.820;16.274;2023-05-07T01:13:26;9.30;99.90
36442;DHT22;64346;50.820;16.274;2023-05-07T01:15:54;9.30;99.90
36442;DHT22;64346;50.820;16.274;2023-05-07T01:18:21;9.30;99.90
36442;DHT22;64346;50.820;16.274;2023-05-07T01:20:51;9.30;99.90
36442;DHT22;64346;50.820;16.274;2023-05-07T01:23:21;9.30;99.90
36442;DHT22;64346;50.820;16.274;2023-05-07T01:25:53;9.30;99.90
36442;DHT22;64346;50.820;16.274;2023-05-07T01:28:22;9.30;99.90
36442;DHT22;64346;50.820;16.274;2023-05-07T01:30:53;9.30;99.90
36442;DHT22;64346;50.820;16.274;2023-05-07T01:33:22;9.20;99.90
36442;DHT22;64346;50.820;16.274;2023-05-07T01:35:53;9.20;99.90
36442;DHT22;64346;50.820;16.274;2023-05-07T01:38:22;9.10;99.90
36442;DHT22;64346;50.820;16.274;2023-05-07T01:40:50;9.10;99.90
36442;DHT22;64346;50.820;16.274;2023-05-07T01:43:17;9.10;99.90
36442;DHT22;64346;50.820;16.274;2023-05-07T01:45:46;9.10;99.90
36442;DHT22;64346;50.820;16.274;2023-05-07T01:48:14;9.10;99.90
36442;DHT22;64346;50.820;16.274;2023-05-07T01:50:44;9.10;99.90
36442;DHT22;64346;50.820;16.274;2023-05-07T01:53:14;9.10;99.90
36442;DHT22;64346;50.820;16.274;2023-05-07T01:55:43;9.10;99.90
36442;DHT22;64346;50.820;16.274;2023-05-07T01:58:11;9.10;99.90
36442;DHT22;64346;50.820;16.274;2023-05-07T02:00:40;9.10;99.90
36442;DHT22;64346;50.820;16.274;2023-05-07T02:03:07;9.10;99.90
36442;DHT22;64346;50.820;16.274;2023-05-07T02:05:35;9.00;99.90
36442;DHT22;64346;50.820;16.274;2023-05-07T02:08:04;9.00;99.90
36442;DHT22;64346;50.820;16.274;2023-05-07T02:10:31;9.00;99.90
36442;DHT22;64346;50.820;16.274;2023-05-07T02:13:01;9.00;99.90
36442;DHT22;64346;50.820;16.274;2023-05-07T02:15:28;9.00;99.90
36442;DHT22;64346;50.820;16.274;2023-05-07T02:18:14;8.90;99.90
36442;DHT22;64346;50.820;16.274;2023-05-07T02:20:41;9.00;99.90
36442;DHT22;64346;50.820;16.274;2023-05-07T02:23:08;9.00;99.90
36442;DHT22;64346;50.820;16.274;2023-05-07T02:25:38;9.10;99.90
36442;DHT22;64346;50.820;16.274;2023-05-07T02:28:05;9.10;99.90
36442;DHT22;64346;50.820;16.274;2023-05-07T02:30:32;9.20;99.90
36442;DHT22;64346;50.820;16.274;2023-05-07T02:33:00;9.10;99.90
36442;DHT22;64346;50.820;16.274;2023-05-07T02:35:27;9.10;99.90
36442;DHT22;64346;50.820;16.274;2023-05-07T02:37:55;9.10;99.90
36442;DHT22;64346;50.820;16.274;2023-05-07T02:40:24;9.10;99.90
36442;DHT22;64346;50.820;16.274;2023-05-07T02:42:52;9.10;99.90
36442;DHT22;64346;50.820;16.274;2023-05-07T02:45:19;9.10;99.90
36442;DHT22;64346;50.820;16.274;2023-05-07T02:47:46;9.10;99.90
36442;DHT22;64346;50.820;16.274;2023-05-07T02:50:13;9.20;99.90
36442;DHT22;64346;50.820;16.274;2023-05-07T02:52:45;9.10;99.90
36442;DHT22;64346;50.820;16.274;2023-05-07T02:55:12;9.10;99.90
36442;DHT22;64346;50.820;16.274;2023-05-07T02:57:39;9.10;99.90
36442;DHT22;64346;50.820;16.274;2023-05-07T03:00:11;9.00;99.90
36442;DHT22;64346;50.820;16.274;2023-05-07T03:02:39;9.00;99.90
36442;DHT22;64346;50.820;16.274;2023-05-07T03:05:08;9.00;99.90
36442;DHT22;64346;50.820;16.274;2023-05-07T03:07:37;9.00;99.90
36442;DHT22;64346;50.820;16.274;2023-05-07T03:10:04;9.00;99.90
36442;DHT22;64346;50.820;16.274;2023-05-07T03:12:34;9.10;99.90
36442;DHT22;64346;50.820;16.274;2023-05-07T03:15:04;9.00;99.90
36442;DHT22;64346;50.820;16.274;2023-05-07T03:17:31;9.00;99.90
36442;DHT22;64346;50.820;16.274;2023-05-07T03:20:00;8.90;99.90
36442;DHT22;64346;50.820;16.274;2023-05-07T03:22:30;8.90;99.90
36442;DHT22;64346;50.820;16.274;2023-05-07T03:24:57;8.80;99.90
36442;DHT22;64346;50.820;16.274;2023-05-07T03:27:25;8.80;99.90
36442;DHT22;64346;50.820;16.274;2023-05-07T03:29:52;8.70;99.90
36442;DHT22;64346;50.820;16.274;2023-05-07T03:32:21;8.70;99.90
36442;DHT22;64346;50.820;16.274;2023-05-07T03:34:48;8.70;99.90
36442;DHT22;64346;50.820;16.274;2023-05-07T03:37:18;8.70;99.90
36442;DHT22;64346;50.820;16.274;2023-05-07T03:39:48;8.70;99.90
36442;DHT22;64346;50.820;16.274;2023-05-07T03:42:15;8.70;99.90
36442;DHT22;64346;50.820;16.274;2023-05-07T03:44:42;8.70;99.90
36442;DHT22;64346;50.820;16.274;2023-05-07T03:47:09;8.80;99.90
36442;DHT22;64346;50.820;16.274;2023-05-07T03:49:37;8.80;99.90
36442;DHT22;64346;50.820;16.274;2023-05-07T03:52:04;8.80;99.90
36442;DHT22;64346;50.820;16.274;2023-05-07T03:54:31;8.80;99.90
36442;DHT22;64346;50.820;16.274;2023-05-07T03:56:58;8.80;99.90
36442;DHT22;64346;50.820;16.274;2023-05-07T03:59:28;8.70;99.90
36442;DHT22;64346;50.820;16.274;2023-05-07T04:01:55;8.80;99.90
36442;DHT22;64346;50.820;16.274;2023-05-07T04:04:23;8.80;99.90
36442;DHT22;64346;50.820;16.274;2023-05-07T04:06:52;8.70;99.90
36442;DHT22;64346;50.820;16.274;2023-05-07T04:09:20;8.70;99.90
36442;DHT22;64346;50.820;16.274;2023-05-07T04:11:47;8.70;99.90
36442;DHT22;64346;50.820;16.274;2023-05-07T04:14:14;8.70;99.90
36442;DHT22;64346;50.820;16.274;2023-05-07T04:16:41;8.70;99.90
36442;DHT22;64346;50.820;16.274;2023-05-07T04:19:11;8.70;99.90
36442;DHT22;64346;50.820;16.274;2023-05-07T04:21:38;8.70;99.90
36442;DHT22;64346;50.820;16.274;2023-05-07T04:24:06;8.70;99.90
36442;DHT22;64346;50.820;16.274;2023-05-07T04:26:33;8.60;99.90
36442;DHT22;64346;50.820;16.274;2023-05-07T04:29:00;8.60;99.90
36442;DHT22;64346;50.820;16.274;2023-05-07T04:31:27;8.60;99.90
36442;DHT22;64346;50.820;16.274;2023-05-07T04:33:55;8.60;99.90
36442;DHT22;64346;50.820;16.274;2023-05-07T04:36:25;8.60;99.90
36442;DHT22;64346;50.820;16.274;2023-05-07T04:38:53;8.50;99.90
36442;DHT22;64346;50.820;16.274;2023-05-07T04:41:20;8.50;99.90
36442;DHT22;64346;50.820;16.274;2023-05-07T04:43:47;8.40;99.90
36442;DHT22;64346;50.820;16.274;2023-05-07T04:46:16;8.50;99.90
36442;DHT22;64346;50.820;16.274;2023-05-07T04:48:46;8.50;99.90
36442;DHT22;64346;50.820;16.274;2023-05-07T04:51:13;8.50;99.90
36442;DHT22;64346;50.820;16.274;2023-05-07T04:53:41;8.50;99.90
36442;DHT22;64346;50.820;16.274;2023-05-07T04:56:08;8.50;99.90
36442;DHT22;64346;50.820;16.274;2023-05-07T04:58:38;8.50;99.90
36442;DHT22;64346;50.820;16.274;2023-05-07T05:01:07;8.50;99.90
36442;DHT22;64346;50.820;16.274;2023-05-07T05:03:37;8.50;99.90
36442;DHT22;64346;50.820;16.274;2023-05-07T05:06:09;8.40;99.90
36442;DHT22;64346;50.820;16.274;2023-05-07T05:08:37;8.40;99.90
36442;DHT22;64346;50.820;16.274;2023-05-07T05:11:04;8.40;99.90
36442;DHT22;64346;50.820;16.274;2023-05-07T05:13:34;8.40;99.90
36442;DHT22;64346;50.820;16.274;2023-05-07T05:16:01;8.40;99.90
36442;DHT22;64346;50.820;16.274;2023-05-07T05:18:28;8.40;99.90
36442;DHT22;64346;50.820;16.274;2023-05-07T05:20:55;8.40;99.90
36442;DHT22;64346;50.820;16.274;2023-05-07T05:23:23;8.30;99.90
36442;DHT22;64346;50.820;16.274;2023-05-07T05:25:50;8.40;99.90
36442;DHT22;64346;50.820;16.274;2023-05-07T05:28:22;8.30;99.90
36442;DHT22;64346;50.820;16.274;2023-05-07T05:30:51;8.30;99.90
36442;DHT22;64346;50.820;16.274;2023-05-07T05:33:23;8.20;99.90
36442;DHT22;64346;50.820;16.274;2023-05-07T05:35:50;8.20;99.90
36442;DHT22;64346;50.820;16.274;2023-05-07T05:38:18;8.30;99.90
36442;DHT22;64346;50.820;16.274;2023-05-07T05:40:48;8.20;99.90
36442;DHT22;64346;50.820;16.274;2023-05-07T05:43:15;8.20;99.90
36442;DHT22;64346;50.820;16.274;2023-05-07T05:45:42;8.20;99.90
36442;DHT22;64346;50.820;16.274;2023-05-07T05:48:09;8.20;99.90
36442;DHT22;64346;50.820;16.274;2023-05-07T05:50:37;8.20;99.90
36442;DHT22;64346;50.820;16.274;2023-05-07T05:53:06;8.20;99.90
36442;DHT22;64346;50.820;16.274;2023-05-07T05:55:34;8.20;99.90
36442;DHT22;64346;50.820;16.274;2023-05-07T05:58:03;8.20;99.90
36442;DHT22;64346;50.820;16.274;2023-05-07T06:00:32;8.20;99.90
36442;DHT22;64346;50.820;16.274;2023-05-07T06:03:02;8.20;99.90
36442;DHT22;64346;50.820;16.274;2023-05-07T06:05:29;8.10;99.90
36442;DHT22;64346;50.820;16.274;2023-05-07T06:07:56;8.10;99.90
36442;DHT22;64346;50.820;16.274;2023-05-07T06:10:28;8.10;99.90
36442;DHT22;64346;50.820;16.274;2023-05-07T06:12:56;8.10;99.90
36442;DHT22;64346;50.820;16.274;2023-05-07T06:15:23;8.10;99.90
36442;DHT22;64346;50.820;16.274;2023-05-07T06:17:53;8.10;99.90
36442;DHT22;64346;50.820;16.274;2023-05-07T06:20:20;8.10;99.90
36442;DHT22;64346;50.820;16.274;2023-05-07T06:22:47;8.00;99.90
36442;DHT22;64346;50.820;16.274;2023-05-07T06:25:17;7.90;99.90
36442;DHT22;64346;50.820;16.274;2023-05-07T06:27:44;7.90;99.90
36442;DHT22;64346;50.820;16.274;2023-05-07T06:30:12;7.90;99.90
36442;DHT22;64346;50.820;16.274;2023-05-07T06:32:41;7.80;99.90
36442;DHT22;64346;50.820;16.274;2023-05-07T06:35:11;7.70;99.90
36442;DHT22;64346;50.820;16.274;2023-05-07T06:37:39;7.80;99.90
36442;DHT22;64346;50.820;16.274;2023-05-07T06:40:09;7.80;99.90
36442;DHT22;64346;50.820;16.274;2023-05-07T06:42:36;7.70;99.90
36442;DHT22;64346;50.820;16.274;2023-05-07T06:45:04;7.80;99.90
36442;DHT22;64346;50.820;16.274;2023-05-07T06:47:31;7.70;99.90
36442;DHT22;64346;50.820;16.274;2023-05-07T06:50:01;7.70;99.90
36442;DHT22;64346;50.820;16.274;2023-05-07T06:52:28;7.80;99.90
36442;DHT22;64346;50.820;16.274;2023-05-07T06:54:55;7.90;99.90
36442;DHT22;64346;50.820;16.274;2023-05-07T06:57:25;7.90;99.90
36442;DHT22;64346;50.820;16.274;2023-05-07T06:59:52;7.90;99.90
36442;DHT22;64346;50.820;16.274;2023-05-07T07:02:20;8.00;99.90
36442;DHT22;64346;50.820;16.274;2023-05-07T07:04:49;8.00;99.90
36442;DHT22;64346;50.820;16.274;2023-05-07T07:07:18;8.00;99.90
36442;DHT22;64346;50.820;16.274;2023-05-07T07:09:45;8.10;99.90
36442;DHT22;64346;50.820;16.274;2023-05-07T07:12:13;8.10;99.90
36442;DHT22;64346;50.820;16.274;2023-05-07T07:14:40;8.10;99.90
36442;DHT22;64346;50.820;16.274;2023-05-07T07:17:07;8.20;99.90
36442;DHT22;64346;50.820;16.274;2023-05-07T07:19:35;8.20;99.90
36442;DHT22;64346;50.820;16.274;2023-05-07T07:22:04;8.10;99.90
36442;DHT22;64346;50.820;16.274;2023-05-07T07:24:34;8.10;99.90
36442;DHT22;64346;50.820;16.274;2023-05-07T07:27:01;8.10;99.90
36442;DHT22;64346;50.820;16.274;2023-05-07T07:29:28;8.10;99.90
36442;DHT22;64346;50.820;16.274;2023-05-07T07:31:56;8.10;99.90
36442;DHT22;64346;50.820;16.274;2023-05-07T07:34:23;8.10;99.90
36442;DHT22;64346;50.820;16.274;2023-05-07T07:36:51;8.10;99.90
36442;DHT22;64346;50.820;16.274;2023-05-07T07:39:18;8.10;99.90
36442;DHT22;64346;50.820;16.274;2023-05-07T07:41:48;8.10;99.90
36442;DHT22;64346;50.820;16.274;2023-05-07T07:44:17;8.10;99.90
36442;DHT22;64346;50.820;16.274;2023-05-07T07:46:47;8.20;99.90
36442;DHT22;64346;50.820;16.274;2023-05-07T07:49:14;8.40;99.90
36442;DHT22;64346;50.820;16.274;2023-05-07T07:51:42;8.40;99.90
36442;DHT22;64346;50.820;16.274;2023-05-07T07:54:11;8.50;99.90
36442;DHT22;64346;50.820;16.274;2023-05-07T07:56:38;8.60;99.90
36442;DHT22;64346;50.820;16.274;2023-05-07T07:59:08;8.80;99.90
36442;DHT22;64346;50.820;16.274;2023-05-07T08:01:35;9.00;99.90
36442;DHT22;64346;50.820;16.274;2023-05-07T08:04:03;9.10;99.90
36442;DHT22;64346;50.820;16.274;2023-05-07T08:06:30;9.20;99.90
36442;DHT22;64346;50.820;16.274;2023-05-07T08:08:57;9.40;99.90
36442;DHT22;64346;50.820;16.274;2023-05-07T08:11:25;9.40;99.90
36442;DHT22;64346;50.820;16.274;2023-05-07T08:13:53;9.50;99.90
36442;DHT22;64346;50.820;16.274;2023-05-07T08:16:20;9.50;99.90
36442;DHT22;64346;50.820;16.274;2023-05-07T08:18:49;9.50;99.90
36442;DHT22;64346;50.820;16.274;2023-05-07T08:21:17;9.40;99.90
36442;DHT22;64346;50.820;16.274;2023-05-07T08:23:44;9.30;99.90
36442;DHT22;64346;50.820;16.274;2023-05-07T08:26:14;9.10;99.90
36442;DHT22;64346;50.820;16.274;2023-05-07T08:28:41;9.10;99.90
36442;DHT22;64346;50.820;16.274;2023-05-07T08:31:11;9.00;99.90
36442;DHT22;64346;50.820;16.274;2023-05-07T08:33:38;8.90;99.90
36442;DHT22;64346;50.820;16.274;2023-05-07T08:36:05;8.90;99.90
36442;DHT22;64346;50.820;16.274;2023-05-07T08:38:35;8.90;99.90
36442;DHT22;64346;50.820;16.274;2023-05-07T08:41:05;9.00;99.90
36442;DHT22;64346;50.820;16.274;2023-05-07T08:43:33;8.90;99.90
36442;DHT22;64346;50.820;16.274;2023-05-07T08:46:01;9.00;99.90
36442;DHT22;64346;50.820;16.274;2023-05-07T08:48:29;9.00;99.90
36442;DHT22;64346;50.820;16.274;2023-05-07T08:50:58;9.00;99.90
36442;DHT22;64346;50.820;16.274;2023-05-07T08:53:28;9.10;99.90
36442;DHT22;64346;50.820;16.274;2023-05-07T08:55:55;9.20;99.90
36442;DHT22;64346;50.820;16.274;2023-05-07T08:58:25;9.40;99.90
36442;DHT22;64346;50.820;16.274;2023-05-07T09:00:53;9.40;99.90
36442;DHT22;64346;50.820;16.274;2023-05-07T09:03:23;9.50;99.90
36442;DHT22;64346;50.820;16.274;2023-05-07T09:05:53;9.60;99.90
36442;DHT22;64346;50.820;16.274;2023-05-07T09:08:24;9.60;99.90
36442;DHT22;64346;50.820;16.274;2023-05-07T09:10:55;9.50;99.90
36442;DHT22;64346;50.820;16.274;2023-05-07T09:13:22;9.30;99.90
36442;DHT22;64346;50.820;16.274;2023-05-07T09:15:52;9.20;99.90
36442;DHT22;64346;50.820;16.274;2023-05-07T09:18:19;9.00;99.90
36442;DHT22;64346;50.820;16.274;2023-05-07T09:20:46;9.10;99.90
36442;DHT22;64346;50.820;16.274;2023-05-07T09:23:14;9.10;99.90
36442;DHT22;64346;50.820;16.274;2023-05-07T09:25:41;9.10;99.90
36442;DHT22;64346;50.820;16.274;2023-05-07T09:28:08;9.30;99.90
36442;DHT22;64346;50.820;16.274;2023-05-07T09:30:36;9.70;99.90
36442;DHT22;64346;50.820;16.274;2023-05-07T09:33:03;10.10;99.90
36442;DHT22;64346;50.820;16.274;2023-05-07T09:35:33;10.70;99.90
36442;DHT22;64346;50.820;16.274;2023-05-07T09:38:01;10.90;99.90
36442;DHT22;64346;50.820;16.274;2023-05-07T09:40:31;11.00;99.90
36442;DHT22;64346;50.820;16.274;2023-05-07T09:43:09;10.80;99.90
36442;DHT22;64346;50.820;16.274;2023-05-07T09:45:37;10.60;99.90
36442;DHT22;64346;50.820;16.274;2023-05-07T09:48:05;10.40;99.90
36442;DHT22;64346;50.820;16.274;2023-05-07T09:50:39;10.20;99.90
36442;DHT22;64346;50.820;16.274;2023-05-07T09:53:10;10.10;99.90
36442;DHT22;64346;50.820;16.274;2023-05-07T09:55:40;9.80;99.90
36442;DHT22;64346;50.820;16.274;2023-05-07T09:58:07;9.70;99.90
36442;DHT22;64346;50.820;16.274;2023-05-07T10:00:37;9.60;99.90
36442;DHT22;64346;50.820;16.274;2023-05-07T10:03:07;9.60;99.90
36442;DHT22;64346;50.820;16.274;2023-05-07T10:05:36;9.70;99.90
36442;DHT22;64346;50.820;16.274;2023-05-07T10:08:04;9.90;99.90
36442;DHT22;64346;50.820;16.274;2023-05-07T10:10:33;10.10;99.90
36442;DHT22;64346;50.820;16.274;2023-05-07T10:13:01;10.30;99.90
36442;DHT22;64346;50.820;16.274;2023-05-07T10:15:29;10.20;99.90
36442;DHT22;64346;50.820;16.274;2023-05-07T10:17:59;10.10;99.90
36442;DHT22;64346;50.820;16.274;2023-05-07T10:20:27;10.00;99.90
36442;DHT22;64346;50.820;16.274;2023-05-07T10:22:56;10.00;99.90
36442;DHT22;64346;50.820;16.274;2023-05-07T10:25:33;10.00;99.90
36442;DHT22;64346;50.820;16.274;2023-05-07T10:28:08;9.90;99.90
36442;DHT22;64346;50.820;16.274;2023-05-07T10:33:29;9.70;99.90
36442;DHT22;64346;50.820;16.274;2023-05-07T10:36:00;9.60;99.90
36442;DHT22;64346;50.820;16.274;2023-05-07T10:38:28;9.90;99.90
36442;DHT22;64346;50.820;16.274;2023-05-07T10:40:58;10.00;99.90
36442;DHT22;64346;50.820;16.274;2023-05-07T10:43:25;10.30;99.90
36442;DHT22;64346;50.820;16.274;2023-05-07T10:46:11;10.40;99.90
36442;DHT22;64346;50.820;16.274;2023-05-07T10:51:28;10.50;99.90
36442;DHT22;64346;50.820;16.274;2023-05-07T11:02:00;9.80;99.90
36442;DHT22;64346;50.820;16.274;2023-05-07T11:04:30;9.80;99.90
36442;DHT22;64346;50.820;16.274;2023-05-07T11:17:59;9.30;99.90
36442;DHT22;64346;50.820;16.274;2023-05-07T11:31:07;10.00;99.90
36442;DHT22;64346;50.820;16.274;2023-05-07T11:33:38;10.20;99.90
36442;DHT22;64346;50.820;16.274;2023-05-07T11:36:07;10.20;99.90
36442;DHT22;64346;50.820;16.274;2023-05-07T11:38:36;10.10;99.90
36442;DHT22;64346;50.820;16.274;2023-05-07T11:41:03;9.90;99.90
36442;DHT22;64346;50.820;16.274;2023-05-07T11:43:34;9.70;99.90
36442;DHT22;64346;50.820;16.274;2023-05-07T11:46:11;9.60;99.90
36442;DHT22;64346;50.820;16.274;2023-05-07T11:48:43;9.40;99.90
36442;DHT22;64346;50.820;16.274;2023-05-07T11:51:10;9.40;99.90
36442;DHT22;64346;50.820;16.274;2023-05-07T11:53:39;9.40;99.90
36442;DHT22;64346;50.820;16.274;2023-05-07T11:58:35;9.70;99.90
36442;DHT22;64346;50.820;16.274;2023-05-07T12:01:03;9.80;99.90
36442;DHT22;64346;50.820;16.274;2023-05-07T12:03:31;10.00;99.90
36442;DHT22;64346;50.820;16.274;2023-05-07T12:06:02;10.00;99.90
36442;DHT22;64346;50.820;16.274;2023-05-07T12:08:37;10.10;99.90
36442;DHT22;64346;50.820;16.274;2023-05-07T12:11:08;10.10;99.90
36442;DHT22;64346;50.820;16.274;2023-05-07T12:13:35;10.00;99.90
36442;DHT22;64346;50.820;16.274;2023-05-07T12:16:04;9.90;99.90
36442;DHT22;64346;50.820;16.274;2023-05-07T12:18:33;9.90;99.90
36442;DHT22;64346;50.820;16.274;2023-05-07T12:21:01;9.90;99.90
36442;DHT22;64346;50.820;16.274;2023-05-07T12:23:30;10.00;99.90
36442;DHT22;64346;50.820;16.274;2023-05-07T12:25:59;10.20;99.90
36442;DHT22;64346;50.820;16.274;2023-05-07T12:28:29;10.40;99.90
36442;DHT22;64346;50.820;16.274;2023-05-07T12:30:56;10.40;99.90
36442;DHT22;64346;50.820;16.274;2023-05-07T12:33:27;10.30;99.90
36442;DHT22;64346;50.820;16.274;2023-05-07T12:35:58;10.20;99.90
36442;DHT22;64346;50.820;16.274;2023-05-07T12:38:25;9.90;99.90
36442;DHT22;64346;50.820;16.274;2023-05-07T12:40:55;9.80;99.90
36442;DHT22;64346;50.820;16.274;2023-05-07T12:43:25;9.70;99.90
36442;DHT22;64346;50.820;16.274;2023-05-07T12:45:57;9.60;99.90
36442;DHT22;64346;50.820;16.274;2023-05-07T12:48:27;9.50;99.90
36442;DHT22;64346;50.820;16.274;2023-05-07T12:50:55;9.70;99.90
36442;DHT22;64346;50.820;16.274;2023-05-07T12:53:26;9.90;99.90
36442;DHT22;64346;50.820;16.274;2023-05-07T12:55:56;10.00;99.90
36442;DHT22;64346;50.820;16.274;2023-05-07T12:58:29;10.00;99.90
36442;DHT22;64346;50.820;16.274;2023-05-07T13:00:58;10.20;99.90
36442;DHT22;64346;50.820;16.274;2023-05-07T13:03:32;10.20;99.90
36442;DHT22;64346;50.820;16.274;2023-05-07T13:06:01;10.20;99.90
36442;DHT22;64346;50.820;16.274;2023-05-07T13:08:35;10.20;99.90
36442;DHT22;64346;50.820;16.274;2023-05-07T13:11:04;10.20;99.90
36442;DHT22;64346;50.820;16.274;2023-05-07T13:13:37;10.20;99.90
36442;DHT22;64346;50.820;16.274;2023-05-07T13:16:08;10.20;99.90
36442;DHT22;64346;50.820;16.274;2023-05-07T13:18:37;10.20;99.90
36442;DHT22;64346;50.820;16.274;2023-05-07T13:21:05;10.30;99.90
36442;DHT22;64346;50.820;16.274;2023-05-07T13:23:34;10.30;99.90
36442;DHT22;64346;50.820;16.274;2023-05-07T13:26:01;10.40;99.90
36442;DHT22;64346;50.820;16.274;2023-05-07T13:28:37;10.50;99.90
36442;DHT22;64346;50.820;16.274;2023-05-07T13:31:04;10.60;99.90
36442;DHT22;64346;50.820;16.274;2023-05-07T13:33:32;10.60;99.90
36442;DHT22;64346;50.820;16.274;2023-05-07T13:35:59;10.60;99.90
36442;DHT22;64346;50.820;16.274;2023-05-07T13:38:29;10.50;99.90
36442;DHT22;64346;50.820;16.274;2023-05-07T13:40:58;10.50;99.90
36442;DHT22;64346;50.820;16.274;2023-05-07T13:43:26;10.50;99.90
36442;DHT22;64346;50.820;16.274;2023-05-07T13:45:53;10.40;99.90
36442;DHT22;64346;50.820;16.274;2023-05-07T13:48:23;10.30;99.90
36442;DHT22;64346;50.820;16.274;2023-05-07T13:50:52;10.40;99.90
36442;DHT22;64346;50.820;16.274;2023-05-07T13:53:20;10.40;99.90
36442;DHT22;64346;50.820;16.274;2023-05-07T13:55:52;10.30;99.90
36442;DHT22;64346;50.820;16.274;2023-05-07T13:58:19;10.20;99.90
36442;DHT22;64346;50.820;16.274;2023-05-07T14:00:46;10.00;99.90
36442;DHT22;64346;50.820;16.274;2023-05-07T14:03:14;10.00;99.90
36442;DHT22;64346;50.820;16.274;2023-05-07T14:05:41;10.00;99.90
36442;DHT22;64346;50.820;16.274;2023-05-07T14:08:11;9.90;99.90
36442;DHT22;64346;50.820;16.274;2023-05-07T14:10:38;9.80;99.90
36442;DHT22;64346;50.820;16.274;2023-05-07T14:13:05;9.70;99.90
36442;DHT22;64346;50.820;16.274;2023-05-07T14:15:32;9.60;99.90
36442;DHT22;64346;50.820;16.274;2023-05-07T14:18:18;9.40;99.90
36442;DHT22;64346;50.820;16.274;2023-05-07T14:20:45;9.30;99.90
36442;DHT22;64346;50.820;16.274;2023-05-07T14:23:12;9.30;99.90
36442;DHT22;64346;50.820;16.274;2023-05-07T14:25:39;9.20;99.90
36442;DHT22;64346;50.820;16.274;2023-05-07T14:28:09;9.10;99.90
36442;DHT22;64346;50.820;16.274;2023-05-07T14:30:36;9.10;99.90
36442;DHT22;64346;50.820;16.274;2023-05-07T14:33:04;9.10;99.90
36442;DHT22;64346;50.820;16.274;2023-05-07T14:35:34;9.10;99.90
36442;DHT22;64346;50.820;16.274;2023-05-07T14:38:01;9.10;99.90
36442;DHT22;64346;50.820;16.274;2023-05-07T14:40:28;10.70;99.90
36442;DHT22;64346;50.820;16.274;2023-05-07T14:42:56;9.30;99.90
36442;DHT22;64346;50.820;16.274;2023-05-07T14:45:23;9.30;99.90
36442;DHT22;64346;50.820;16.274;2023-05-07T14:47:52;9.30;99.90
36442;DHT22;64346;50.820;16.274;2023-05-07T14:50:22;9.40;99.90
36442;DHT22;64346;50.820;16.274;2023-05-07T14:52:49;9.40;99.90
36442;DHT22;64346;50.820;16.274;2023-05-07T14:55:19;9.40;99.90
36442;DHT22;64346;50.820;16.274;2023-05-07T14:57:49;9.30;99.90
36442;DHT22;64346;50.820;16.274;2023-05-07T15:00:18;9.30;99.90
36442;DHT22;64346;50.820;16.274;2023-05-07T15:02:46;9.20;99.90
36442;DHT22;64346;50.820;16.274;2023-05-07T15:05:13;9.10;99.90
36442;DHT22;64346;50.820;16.274;2023-05-07T15:07:41;9.20;99.90
36442;DHT22;64346;50.820;16.274;2023-05-07T15:10:08;9.20;99.90
36442;DHT22;64346;50.820;16.274;2023-05-07T15:12:38;9.30;99.90
36442;DHT22;64346;50.820;16.274;2023-05-07T15:15:08;9.30;99.90
36442;DHT22;64346;50.820;16.274;2023-05-07T15:17:36;9.40;99.90
36442;DHT22;64346;50.820;16.274;2023-05-07T15:20:04;9.30;99.90
36442;DHT22;64346;50.820;16.274;2023-05-07T15:22:35;9.30;99.90
36442;DHT22;64346;50.820;16.274;2023-05-07T15:25:03;9.30;99.90
36442;DHT22;64346;50.820;16.274;2023-05-07T15:27:31;9.30;99.90
36442;DHT22;64346;50.820;16.274;2023-05-07T15:29:58;9.30;99.90
36442;DHT22;64346;50.820;16.274;2023-05-07T15:32:28;9.20;99.90
36442;DHT22;64346;50.820;16.274;2023-05-07T15:34:55;9.10;99.90
36442;DHT22;64346;50.820;16.274;2023-05-07T15:37:24;9.20;99.90
36442;DHT22;64346;50.820;16.274;2023-05-07T15:39:54;9.10;99.90
36442;DHT22;64346;50.820;16.274;2023-05-07T15:42:27;9.10;99.90
36442;DHT22;64346;50.820;16.274;2023-05-07T15:44:54;9.00;99.90
36442;DHT22;64346;50.820;16.274;2023-05-07T15:47:21;9.00;99.90
36442;DHT22;64346;50.820;16.274;2023-05-07T15:49:51;8.90;99.90
36442;DHT22;64346;50.820;16.274;2023-05-07T15:52:19;8.80;99.90
36442;DHT22;64346;50.820;16.274;2023-05-07T15:54:46;8.80;99.90
36442;DHT22;64346;50.820;16.274;2023-05-07T15:57:14;8.80;99.90
36442;DHT22;64346;50.820;16.274;2023-05-07T15:59:41;8.90;99.90
36442;DHT22;64346;50.820;16.274;2023-05-07T16:02:09;8.90;99.90
36442;DHT22;64346;50.820;16.274;2023-05-07T16:04:36;8.90;99.90
36442;DHT22;64346;50.820;16.274;2023-05-07T16:07:04;8.90;99.90
36442;DHT22;64346;50.820;16.274;2023-05-07T16:09:32;8.90;99.90
36442;DHT22;64346;50.820;16.274;2023-05-07T16:11:59;8.80;99.90
36442;DHT22;64346;50.820;16.274;2023-05-07T16:14:26;8.70;99.90